If you wish to contribute or participate in the discussions about articles you are invited to join SKYbrary as a registered user

 Actions

Anvik Airport

From SKYbrary Wiki

PANV
Airport
ICAO: PANV – IATA: ANV
Summary
Name Anvik Airport
Region North America
Territory Alaska US.gif
Location , Alaska
Serving Anvik
Elevation 88.697 m
291 ft
291 ft88.697 m
Type medium airport
Coordinates 62° 38' 48.12" N, 160° 11' 27.60" W
Runways
Designator Length Width Surface ROPS
17/35 902 m2,959.318 ft
23 m75.459 ft
GVL /


METAR
Observation PANV 090756Z AUTO 00000KT 10SM CLR 10/06 A2980 RMK AO2 SLP158 T01000056 TSNO
Station Anvik, Anvik Airport
Date/Time 09 August 2020 07:56:00
Wind direction
Wind speed 00 kts
Lowest cloud amount n/a
Temperature 10°C
Dew point 5.6°C
Humidity 74%
QNH hPa
Weather condition n/a